ZSWIN FACT-FACT
Flight info
| Callsign | ZSWIN |
|---|---|
| Flight time | 0h 18m |
| Altitude | 1500 |
| Route | DCT |
| Aircraft | SF50/L-SD/C |
Departure
| Time | 2026-05-04 09:10 |
|---|---|
| Airport | Cape Town International Airport (FACT) |
Arrival
| Time | 2026-05-04 09:28 |
|---|---|
| Airport | Cape Town International Airport (FACT) |
| Time | Latitude | Longitude | Altitude | Speed | Heading |
|---|---|---|---|---|---|
| 2026-05-04 09:03 | -33.97680 | 18.59737 | 148 ft | 0 kts | 111° |
| 2026-05-04 09:05 | -33.97684 | 18.59746 | 148 ft | 3 kts | 123° |
| 2026-05-04 09:05 | -33.97721 | 18.59779 | 147 ft | 9 kts | 158° |
| 2026-05-04 09:06 | -33.97802 | 18.59813 | 145 ft | 13 kts | 161° |
| 2026-05-04 09:07 | -33.97755 | 18.60139 | 146 ft | 7 kts | 69° |
| 2026-05-04 09:08 | -33.97741 | 18.60192 | 147 ft | 5 kts | 75° |
| 2026-05-04 09:08 | -33.97735 | 18.60236 | 147 ft | 4 kts | 87° |
| 2026-05-04 09:08 | -33.97738 | 18.60273 | 147 ft | 4 kts | 103° |
| 2026-05-04 09:08 | -33.97744 | 18.60303 | 147 ft | 3 kts | 105° |
| 2026-05-04 09:09 | -33.97755 | 18.60337 | 146 ft | 11 kts | 108° |
| 2026-05-04 09:09 | -33.97781 | 18.60497 | 148 ft | 22 kts | 72° |
| 2026-05-04 09:09 | -33.97649 | 18.60518 | 149 ft | 22 kts | 351° |
| 2026-05-04 09:09 | -33.97368 | 18.60444 | 153 ft | 71 kts | 345° |
| 2026-05-04 09:10 | -33.96738 | 18.60246 | 291 ft | 106 kts | 346° |
| 2026-05-04 09:10 | -33.95983 | 18.60058 | 798 ft | 112 kts | 351° |
| 2026-05-04 09:10 | -33.95223 | 18.60175 | 1273 ft | 117 kts | 35° |
| 2026-05-04 09:10 | -33.94839 | 18.61046 | 1544 ft | 140 kts | 94° |
| 2026-05-04 09:11 | -33.95364 | 18.62066 | 1697 ft | 152 kts | 147° |
| 2026-05-04 09:11 | -33.96353 | 18.62520 | 1646 ft | 151 kts | 161° |
| 2026-05-04 09:11 | -33.97297 | 18.62886 | 1621 ft | 136 kts | 163° |
| 2026-05-04 09:11 | -33.98189 | 18.63195 | 1554 ft | 129 kts | 164° |
| 2026-05-04 09:12 | -33.99041 | 18.63455 | 1547 ft | 122 kts | 166° |
| 2026-05-04 09:12 | -33.99861 | 18.63675 | 1521 ft | 120 kts | 167° |
| 2026-05-04 09:14 | -34.04027 | 18.63056 | 1473 ft | 118 kts | 290° |
| 2026-05-04 09:14 | -34.03554 | 18.62279 | 1477 ft | 116 kts | 330° |
| 2026-05-04 09:14 | -34.02762 | 18.61991 | 1338 ft | 121 kts | 347° |
| 2026-05-04 09:14 | -34.01965 | 18.61798 | 1247 ft | 113 kts | 348° |
| 2026-05-04 09:15 | -34.01195 | 18.61612 | 1066 ft | 112 kts | 348° |
| 2026-05-04 09:15 | -34.00451 | 18.61394 | 908 ft | 110 kts | 345° |
| 2026-05-04 09:15 | -33.99712 | 18.61167 | 669 ft | 111 kts | 345° |
| 2026-05-04 09:15 | -33.98978 | 18.60938 | 399 ft | 110 kts | 345° |
| 2026-05-04 09:17 | -33.95150 | 18.61995 | 1734 ft | 163 kts | 158° |
| 2026-05-04 09:18 | -33.96262 | 18.62427 | 1619 ft | 174 kts | 163° |
| 2026-05-04 09:18 | -33.97356 | 18.62798 | 1784 ft | 145 kts | 163° |
| 2026-05-04 09:18 | -33.98342 | 18.63129 | 1471 ft | 147 kts | 165° |
| 2026-05-04 09:18 | -33.99250 | 18.63405 | 1528 ft | 127 kts | 166° |
| 2026-05-04 09:19 | -34.00091 | 18.63620 | 1541 ft | 119 kts | 169° |
| 2026-05-04 09:19 | -34.00916 | 18.63786 | 1480 ft | 119 kts | 171° |
| 2026-05-04 09:19 | -34.01725 | 18.63933 | 1437 ft | 119 kts | 166° |
| 2026-05-04 09:19 | -34.02528 | 18.64190 | 1412 ft | 115 kts | 164° |
| 2026-05-04 09:20 | -34.03283 | 18.64416 | 1442 ft | 107 kts | 172° |
| 2026-05-04 09:20 | -34.03869 | 18.64069 | 1341 ft | 97 kts | 253° |
| 2026-05-04 09:20 | -34.03560 | 18.63464 | 1139 ft | 99 kts | 333° |
| 2026-05-04 09:20 | -34.03004 | 18.62972 | 1001 ft | 98 kts | 316° |
| 2026-05-04 09:21 | -34.02543 | 18.62363 | 905 ft | 99 kts | 311° |
| 2026-05-04 09:21 | -34.02013 | 18.61848 | 808 ft | 98 kts | 338° |
| 2026-05-04 09:21 | -34.01363 | 18.61588 | 694 ft | 101 kts | 342° |
| 2026-05-04 09:21 | -34.00694 | 18.61357 | 631 ft | 97 kts | 341° |
| 2026-05-04 09:22 | -34.00052 | 18.61101 | 542 ft | 96 kts | 349° |
| 2026-05-04 09:22 | -33.99376 | 18.60966 | 431 ft | 96 kts | 351° |
| 2026-05-04 09:22 | -33.98677 | 18.60858 | 157 ft | 101 kts | 348° |
| 2026-05-04 09:22 | -33.98076 | 18.60666 | 150 ft | 80 kts | 345° |
| 2026-05-04 09:23 | -33.97590 | 18.60518 | 150 ft | 63 kts | 345° |
| 2026-05-04 09:23 | -33.97017 | 18.60327 | 183 ft | 108 kts | 344° |
| 2026-05-04 09:23 | -33.96272 | 18.60177 | 626 ft | 119 kts | 7° |
| 2026-05-04 09:23 | -33.95579 | 18.60624 | 1165 ft | 118 kts | 54° |
| 2026-05-04 09:25 | -33.96009 | 18.58988 | 616 ft | 152 kts | 267° |
| 2026-05-04 09:25 | -33.96375 | 18.57974 | 1597 ft | 119 kts | 234° |
| 2026-05-04 09:26 | -33.97053 | 18.57457 | 1613 ft | 122 kts | 189° |
| 2026-05-04 09:26 | -33.97907 | 18.57409 | 1520 ft | 120 kts | 178° |
| 2026-05-04 09:26 | -33.98725 | 18.57556 | 1440 ft | 120 kts | 157° |
| 2026-05-04 09:26 | -33.99323 | 18.58225 | 1201 ft | 123 kts | 115° |
| 2026-05-04 09:27 | -33.99324 | 18.59238 | 881 ft | 128 kts | 68° |
| 2026-05-04 09:27 | -33.98920 | 18.60096 | 780 ft | 110 kts | 52° |
| 2026-05-04 09:27 | -33.98287 | 18.60622 | 376 ft | 118 kts | 12° |
| 2026-05-04 09:27 | -33.97515 | 18.60490 | 174 ft | 104 kts | 344° |
| 2026-05-04 09:28 | -33.96887 | 18.60283 | 154 ft | 83 kts | 344° |
| 2026-05-04 09:28 | -33.96433 | 18.60144 | 154 ft | 42 kts | 345° |
| 2026-05-04 09:28 | -33.96167 | 18.60050 | 152 ft | 37 kts | 343° |
| 2026-05-04 09:28 | -33.96071 | 18.59915 | 153 ft | 20 kts | 237° |
| 2026-05-04 09:29 | -33.96182 | 18.59784 | 151 ft | 26 kts | 226° |
| 2026-05-04 09:29 | -33.96353 | 18.59748 | 152 ft | 30 kts | 171° |
| 2026-05-04 09:29 | -33.96597 | 18.59802 | 154 ft | 40 kts | 165° |
| 2026-05-04 09:29 | -33.96868 | 18.59893 | 157 ft | 39 kts | 166° |
| 2026-05-04 09:30 | -33.97058 | 18.60027 | 155 ft | 27 kts | 104° |
| 2026-05-04 09:30 | -33.97108 | 18.60233 | 153 ft | 24 kts | 104° |
| 2026-05-04 09:30 | -33.97033 | 18.60339 | 151 ft | 41 kts | 350° |
| 2026-05-04 09:30 | -33.96526 | 18.60171 | 163 ft | 103 kts | 345° |
| 2026-05-04 09:31 | -33.95806 | 18.59931 | 579 ft | 111 kts | 348° |
| 2026-05-04 09:31 | -33.95114 | 18.60159 | 1186 ft | 109 kts | 44° |
| 2026-05-04 09:31 | -33.94783 | 18.60980 | 1538 ft | 121 kts | 87° |
| 2026-05-04 09:31 | -33.95167 | 18.61851 | 1629 ft | 115 kts | 133° |
| 2026-05-04 09:32 | -33.95787 | 18.62451 | 1429 ft | 113 kts | 156° |
| 2026-05-04 09:32 | -33.96552 | 18.62547 | 1208 ft | 110 kts | 186° |
| 2026-05-04 09:34 | -33.95957 | 18.57576 | 1442 ft | 122 kts | 254° |
| 2026-05-04 09:34 | -33.96158 | 18.56576 | 2128 ft | 119 kts | 260° |